createdAt,value
2017-03-11T00:00:40.608Z,735.06
2017-03-11T00:01:40.584Z,735.06
2017-03-11T00:02:40.586Z,735.02
2017-03-11T00:03:40.532Z,735.08
2017-03-11T00:04:40.509Z,735.1
2017-03-11T00:05:40.480Z,735.08
2017-03-11T00:06:40.455Z,735.06
2017-03-11T00:07:40.435Z,735.09
2017-03-11T00:08:40.405Z,735.06
2017-03-11T00:09:40.381Z,735.03
2017-03-11T00:10:40.356Z,735.04
2017-03-11T00:11:40.331Z,735.05
2017-03-11T00:12:40.307Z,735.02
2017-03-11T00:13:40.286Z,735
2017-03-11T00:14:40.260Z,735.05
2017-03-11T00:15:40.236Z,735.04
2017-03-11T00:16:40.211Z,735.01
2017-03-11T00:17:40.186Z,735.03
2017-03-11T00:18:40.161Z,735.1
2017-03-11T00:19:40.136Z,735.07
2017-03-11T00:20:40.109Z,735.06
2017-03-11T00:21:40.083Z,735.14
2017-03-11T00:22:40.058Z,735.08
2017-03-11T00:23:40.036Z,735.1
2017-03-11T00:24:40.013Z,735.1
2017-03-11T00:25:39.987Z,735.08
2017-03-11T00:26:39.962Z,735.12
2017-03-11T00:27:39.938Z,735.05
2017-03-11T00:28:39.913Z,735.07
2017-03-11T00:29:39.888Z,735.09
2017-03-11T00:30:39.860Z,735.13
2017-03-11T00:31:39.838Z,735.17
2017-03-11T00:32:39.813Z,735.14
2017-03-11T00:33:39.788Z,735.07
2017-03-11T00:34:39.762Z,735.09
2017-03-11T00:35:39.734Z,735.15
2017-03-11T00:36:39.710Z,735.18
2017-03-11T00:37:39.684Z,735.07
2017-03-11T00:38:39.663Z,735.15
2017-03-11T00:39:39.640Z,735.16
2017-03-11T00:40:39.614Z,735.16
2017-03-11T00:41:39.584Z,735.12
2017-03-11T00:42:39.560Z,735.11
2017-03-11T00:43:39.539Z,735.09
2017-03-11T00:44:39.509Z,735.07
2017-03-11T00:45:39.493Z,735.2
2017-03-11T00:46:39.465Z,735.17
2017-03-11T00:47:39.438Z,735.17
2017-03-11T00:48:39.415Z,735.19
2017-03-11T00:49:39.386Z,735.2
2017-03-11T00:50:39.366Z,735.18
2017-03-11T00:51:39.341Z,735.15
2017-03-11T00:52:39.313Z,735.15
2017-03-11T00:53:39.292Z,735.03
2017-03-11T00:54:39.264Z,735.15
2017-03-11T00:55:39.250Z,735.06
2017-03-11T00:56:39.240Z,735.07
2017-03-11T00:57:39.192Z,735.07
2017-03-11T00:58:39.167Z,735.08
2017-03-11T00:59:39.145Z,735.03
2017-03-11T01:00:39.117Z,735.03
2017-03-11T01:01:39.092Z,735.04
2017-03-11T01:02:39.068Z,735.03
2017-03-11T01:03:39.043Z,735.03
2017-03-11T01:04:39.023Z,734.98
2017-03-11T01:05:39.000Z,734.99
2017-03-11T01:06:38.973Z,735.01
2017-03-11T01:07:38.950Z,735.06
2017-03-11T01:08:38.923Z,735
2017-03-11T01:09:38.902Z,734.99
2017-03-11T01:10:38.877Z,735.04
2017-03-11T01:11:38.849Z,734.93
2017-03-11T01:12:38.829Z,734.99
2017-03-11T01:13:38.805Z,734.94
2017-03-11T01:14:38.780Z,735
2017-03-11T01:15:38.757Z,735.04
2017-03-11T01:16:38.729Z,735
2017-03-11T01:17:38.708Z,734.97
2017-03-11T01:18:38.681Z,735.04
2017-03-11T01:19:38.661Z,734.96
2017-03-11T01:20:38.637Z,734.95
2017-03-11T01:21:38.608Z,734.98
2017-03-11T01:22:38.588Z,734.98
2017-03-11T01:23:38.565Z,734.97
2017-03-11T01:24:38.541Z,734.98
2017-03-11T01:25:38.512Z,734.96
2017-03-11T01:26:38.492Z,734.95
2017-03-11T01:27:38.469Z,734.98
2017-03-11T01:28:38.443Z,734.95
2017-03-11T01:29:38.419Z,734.93
2017-03-11T01:30:38.396Z,734.94
2017-03-11T01:31:38.373Z,734.92
2017-03-11T01:32:38.345Z,735.02
2017-03-11T01:33:38.324Z,734.99
2017-03-11T01:34:38.299Z,734.99
2017-03-11T01:35:38.277Z,734.93
2017-03-11T01:36:38.254Z,734.94
2017-03-11T01:37:38.225Z,734.96
2017-03-11T01:38:38.202Z,734.93
2017-03-11T01:39:38.180Z,734.95
2017-03-11T01:40:38.154Z,734.88
2017-03-11T01:41:38.130Z,734.86
2017-03-11T01:42:38.110Z,734.89
2017-03-11T01:43:38.087Z,734.83
2017-03-11T01:44:38.061Z,734.83
2017-03-11T01:45:38.039Z,734.77
2017-03-11T01:46:38.009Z,734.78
2017-03-11T01:47:37.991Z,734.8
2017-03-11T01:48:37.967Z,734.79
2017-03-11T01:49:37.939Z,734.86
2017-03-11T01:50:37.918Z,734.84
2017-03-11T01:51:37.891Z,734.85
2017-03-11T01:52:37.867Z,734.87
2017-03-11T01:53:37.847Z,734.89
2017-03-11T01:54:38.025Z,734.92
2017-03-11T01:55:37.796Z,734.96
2017-03-11T01:56:37.772Z,734.91
2017-03-11T01:57:37.750Z,734.94
2017-03-11T01:58:37.724Z,734.93
2017-03-11T01:59:37.704Z,734.9
2017-03-11T02:00:37.681Z,734.87
2017-03-11T02:01:37.652Z,734.87
2017-03-11T02:02:37.633Z,734.93
2017-03-11T02:03:37.606Z,734.94
2017-03-11T02:04:37.587Z,734.86
2017-03-11T02:05:37.558Z,734.89
2017-03-11T02:06:37.539Z,734.9
2017-03-11T02:07:37.511Z,734.89
2017-03-11T02:08:37.491Z,734.93
2017-03-11T02:09:37.464Z,734.89
2017-03-11T02:10:37.444Z,734.87
2017-03-11T02:11:37.421Z,734.84
2017-03-11T02:12:37.392Z,734.84
2017-03-11T02:13:37.373Z,734.86
2017-03-11T02:14:37.344Z,734.87
2017-03-11T02:15:37.326Z,734.84
2017-03-11T02:16:37.301Z,734.78
2017-03-11T02:17:37.277Z,734.81
2017-03-11T02:18:37.250Z,734.76
2017-03-11T02:19:37.226Z,734.79
2017-03-11T02:20:37.202Z,734.81
2017-03-11T02:21:37.183Z,734.71
2017-03-11T02:22:37.156Z,734.76
2017-03-11T02:23:37.132Z,734.77
2017-03-11T02:24:37.108Z,734.79
2017-03-11T02:25:37.084Z,734.79
2017-03-11T02:26:37.061Z,734.78
2017-03-11T02:27:37.240Z,734.82
2017-03-11T02:28:37.017Z,734.85
2017-03-11T02:29:36.991Z,734.78
2017-03-11T02:30:36.967Z,734.77
2017-03-11T02:31:36.948Z,734.83
2017-03-11T02:32:36.921Z,734.81
2017-03-11T02:33:36.901Z,734.77
2017-03-11T02:34:36.877Z,734.76
2017-03-11T02:35:36.850Z,734.71
2017-03-11T02:36:36.831Z,734.75
2017-03-11T02:37:36.804Z,734.72
2017-03-11T02:38:36.783Z,734.73
2017-03-11T02:39:36.760Z,734.73
2017-03-11T02:40:36.737Z,734.78
2017-03-11T02:41:36.713Z,734.72
2017-03-11T02:42:36.685Z,734.73
2017-03-11T02:43:36.666Z,734.68
2017-03-11T02:44:36.642Z,734.71
2017-03-11T02:45:36.618Z,734.68
2017-03-11T02:46:36.624Z,734.68
2017-03-11T02:47:36.571Z,734.68
2017-03-11T02:48:36.547Z,734.63
2017-03-11T02:49:36.518Z,734.64
2017-03-11T02:50:36.498Z,734.6
2017-03-11T02:51:36.471Z,734.62
2017-03-11T02:52:36.446Z,734.62
2017-03-11T02:53:36.428Z,734.61
2017-03-11T02:54:36.403Z,734.61
2017-03-11T02:55:36.380Z,734.58
2017-03-11T02:56:36.355Z,734.58
2017-03-11T02:57:36.331Z,734.56
2017-03-11T02:58:36.307Z,734.62
2017-03-11T02:59:36.279Z,734.62
2017-03-11T03:00:36.256Z,734.57
2017-03-11T03:01:36.235Z,734.56
2017-03-11T03:02:36.211Z,734.55
2017-03-11T03:03:36.188Z,734.58
2017-03-11T03:04:36.158Z,734.57
2017-03-11T03:05:36.138Z,734.6
2017-03-11T03:06:36.112Z,734.56
2017-03-11T03:07:36.086Z,734.6
2017-03-11T03:08:36.067Z,734.6
2017-03-11T03:09:36.042Z,734.61
2017-03-11T03:10:36.014Z,734.58
2017-03-11T03:11:35.995Z,734.54
2017-03-11T03:12:35.969Z,734.51
2017-03-11T03:13:35.946Z,734.55
2017-03-11T03:14:35.921Z,734.54
2017-03-11T03:15:35.898Z,734.5
2017-03-11T03:16:35.873Z,734.54
2017-03-11T03:17:35.856Z,734.56
2017-03-11T03:18:35.826Z,734.58
2017-03-11T03:19:35.796Z,734.57
2017-03-11T03:20:35.777Z,734.54
2017-03-11T03:21:35.751Z,734.58
2017-03-11T03:22:35.724Z,734.55
2017-03-11T03:23:35.700Z,734.56
2017-03-11T03:24:35.677Z,734.56
2017-03-11T03:25:35.651Z,734.55
2017-03-11T03:26:35.628Z,734.57
2017-03-11T03:27:35.605Z,734.56
2017-03-11T03:28:35.584Z,734.56
2017-03-11T03:29:35.556Z,734.54
2017-03-11T03:30:35.532Z,734.52
2017-03-11T03:31:35.509Z,734.55
2017-03-11T03:32:35.488Z,734.55
2017-03-11T03:33:35.463Z,734.54
2017-03-11T03:34:35.437Z,734.51
2017-03-11T03:35:35.418Z,734.52
2017-03-11T03:36:35.390Z,734.54
2017-03-11T03:37:35.369Z,734.49
2017-03-11T03:38:35.342Z,734.54
2017-03-11T03:39:35.319Z,734.47
2017-03-11T03:40:35.295Z,734.52
2017-03-11T03:41:35.272Z,734.53
2017-03-11T03:42:35.253Z,734.56
2017-03-11T03:43:35.224Z,734.5
2017-03-11T03:44:35.201Z,734.5
2017-03-11T03:45:35.183Z,734.49
2017-03-11T03:46:35.160Z,734.53
2017-03-11T03:47:35.137Z,734.48
2017-03-11T03:48:35.110Z,734.46
2017-03-11T03:49:35.085Z,734.49
2017-03-11T03:50:35.063Z,734.45
2017-03-11T03:51:35.043Z,734.5
2017-03-11T03:52:35.017Z,734.53
2017-03-11T03:53:35.003Z,734.48
2017-03-11T03:54:34.973Z,734.52
2017-03-11T03:55:34.946Z,734.52
2017-03-11T03:56:34.927Z,734.48
2017-03-11T03:57:34.926Z,734.53
2017-03-11T03:58:34.880Z,734.51
2017-03-11T03:59:34.885Z,734.51
2017-03-11T04:00:34.833Z,734.51
2017-03-11T04:01:34.808Z,734.52
2017-03-11T04:02:34.781Z,734.5
2017-03-11T04:03:34.758Z,734.44
2017-03-11T04:04:34.739Z,734.51
2017-03-11T04:05:34.715Z,734.51
2017-03-11T04:06:34.691Z,734.47
2017-03-11T04:07:34.668Z,734.42
2017-03-11T04:08:34.642Z,734.49
2017-03-11T04:09:34.616Z,734.43
2017-03-11T04:10:34.597Z,734.52
2017-03-11T04:11:34.569Z,734.52
2017-03-11T04:12:34.550Z,734.47
2017-03-11T04:13:34.522Z,734.5
2017-03-11T04:14:34.497Z,734.5
2017-03-11T04:15:34.475Z,734.5
2017-03-11T04:16:34.450Z,734.54
2017-03-11T04:17:34.427Z,734.52
2017-03-11T04:18:34.408Z,734.54
2017-03-11T04:19:34.381Z,734.59
2017-03-11T04:20:34.361Z,734.55
2017-03-11T04:21:34.333Z,734.54
2017-03-11T04:22:34.310Z,734.56
2017-03-11T04:23:34.287Z,734.6
2017-03-11T04:24:34.262Z,734.57
2017-03-11T04:25:34.239Z,734.59
2017-03-11T04:26:34.217Z,734.59
2017-03-11T04:27:34.193Z,734.55
2017-03-11T04:28:34.171Z,734.6
2017-03-11T04:29:34.148Z,734.61
2017-03-11T04:30:34.123Z,734.64
2017-03-11T04:31:34.099Z,734.64
2017-03-11T04:32:34.076Z,734.6
2017-03-11T04:33:34.051Z,734.55
2017-03-11T04:34:34.032Z,734.6
2017-03-11T04:35:34.010Z,734.61
2017-03-11T04:36:33.981Z,734.51
2017-03-11T04:37:33.963Z,734.57
2017-03-11T04:38:33.934Z,734.54
2017-03-11T04:39:33.914Z,734.57
2017-03-11T04:40:33.891Z,734.55
2017-03-11T04:41:33.868Z,734.61
2017-03-11T04:42:33.842Z,734.6
2017-03-11T04:43:33.820Z,734.58
2017-03-11T04:44:33.798Z,734.61
2017-03-11T04:45:33.774Z,734.62
2017-03-11T04:46:33.751Z,734.6
2017-03-11T04:47:33.727Z,734.63
2017-03-11T04:48:33.700Z,734.58
2017-03-11T04:49:33.676Z,734.6
2017-03-11T04:50:33.660Z,734.62
2017-03-11T04:51:33.630Z,734.58
2017-03-11T04:52:33.606Z,734.58
2017-03-11T04:53:33.582Z,734.59
2017-03-11T04:54:33.563Z,734.59
2017-03-11T04:55:33.537Z,734.58
2017-03-11T04:56:33.515Z,734.62
2017-03-11T04:57:33.492Z,734.6
2017-03-11T04:58:33.465Z,734.55
2017-03-11T04:59:33.445Z,734.57
2017-03-11T05:00:33.416Z,734.58
2017-03-11T05:01:33.392Z,734.53
2017-03-11T05:02:33.369Z,734.53
2017-03-11T05:03:33.350Z,734.53
2017-03-11T05:04:33.320Z,734.53
2017-03-11T05:05:33.303Z,734.5
2017-03-11T05:06:33.279Z,734.57
2017-03-11T05:07:33.255Z,734.57
2017-03-11T05:08:33.232Z,734.56
2017-03-11T05:09:33.208Z,734.54
2017-03-11T05:10:33.182Z,734.52
2017-03-11T05:11:33.162Z,734.54
2017-03-11T05:12:33.140Z,734.53
2017-03-11T05:13:33.116Z,734.51
2017-03-11T05:14:33.090Z,734.55
2017-03-11T05:15:33.070Z,734.47
2017-03-11T05:16:33.046Z,734.56
2017-03-11T05:17:33.025Z,734.53
2017-03-11T05:18:33.001Z,734.52
2017-03-11T05:19:32.979Z,734.49
2017-03-11T05:20:32.956Z,734.54
2017-03-11T05:21:32.933Z,734.54
2017-03-11T05:22:32.908Z,734.51
2017-03-11T05:23:32.886Z,734.58
2017-03-11T05:24:32.860Z,734.54
2017-03-11T05:25:32.837Z,734.55
2017-03-11T05:26:32.815Z,734.56
2017-03-11T05:27:32.790Z,734.58
2017-03-11T05:28:32.772Z,734.55
2017-03-11T05:29:32.749Z,734.6
2017-03-11T05:30:32.722Z,734.61
2017-03-11T05:31:32.704Z,734.59
2017-03-11T05:32:32.677Z,734.62
2017-03-11T05:33:32.655Z,734.57
2017-03-11T05:34:32.630Z,734.61
2017-03-11T05:35:32.612Z,734.57
2017-03-11T05:36:32.585Z,734.56
2017-03-11T05:37:32.565Z,734.58
2017-03-11T05:38:32.540Z,734.57
2017-03-11T05:39:32.520Z,734.56
2017-03-11T05:40:32.492Z,734.61
2017-03-11T05:41:32.468Z,734.6
2017-03-11T05:42:32.446Z,734.58
2017-03-11T05:43:32.423Z,734.65
2017-03-11T05:44:32.398Z,734.62
2017-03-11T05:45:32.381Z,734.64
2017-03-11T05:46:32.354Z,734.67
2017-03-11T05:47:32.335Z,734.66
2017-03-11T05:48:32.312Z,734.62
2017-03-11T05:49:32.290Z,734.58
2017-03-11T05:50:32.262Z,734.59
2017-03-11T05:51:32.243Z,734.64
2017-03-11T05:52:32.216Z,734.61
2017-03-11T05:53:32.198Z,734.6
2017-03-11T05:54:32.171Z,734.57
2017-03-11T05:55:32.152Z,734.61
2017-03-11T05:56:32.131Z,734.62
2017-03-11T05:57:32.108Z,734.6
2017-03-11T05:58:32.081Z,734.6
2017-03-11T05:59:32.060Z,734.6
2017-03-11T06:00:32.037Z,734.58
2017-03-11T06:01:32.017Z,734.66
2017-03-11T06:02:31.996Z,734.64
2017-03-11T06:03:31.971Z,734.66
2017-03-11T06:04:31.950Z,734.67
2017-03-11T06:05:31.927Z,734.68
2017-03-11T06:06:31.905Z,734.64
2017-03-11T06:07:31.887Z,734.68
2017-03-11T06:08:31.865Z,734.68
2017-03-11T06:09:31.843Z,734.68
2017-03-11T06:10:31.822Z,734.65
2017-03-11T06:11:31.799Z,734.69
2017-03-11T06:12:31.777Z,734.7
2017-03-11T06:13:31.755Z,734.71
2017-03-11T06:14:31.730Z,734.76
2017-03-11T06:15:31.707Z,734.74
2017-03-11T06:16:31.686Z,734.71
2017-03-11T06:17:31.667Z,734.69
2017-03-11T06:18:31.646Z,734.7
2017-03-11T06:19:31.625Z,734.71
2017-03-11T06:20:31.604Z,734.63
2017-03-11T06:21:31.582Z,734.69
2017-03-11T06:22:31.558Z,734.71
2017-03-11T06:23:31.541Z,734.62
2017-03-11T06:24:31.518Z,734.65
2017-03-11T06:25:31.495Z,734.66
2017-03-11T06:26:31.478Z,734.66
2017-03-11T06:27:31.457Z,734.66
2017-03-11T06:28:31.432Z,734.71
2017-03-11T06:29:31.412Z,734.67
2017-03-11T06:30:31.390Z,734.7
2017-03-11T06:31:31.373Z,734.67
2017-03-11T06:32:31.350Z,734.69
2017-03-11T06:33:31.328Z,734.69
2017-03-11T06:34:31.311Z,734.76
2017-03-11T06:35:31.290Z,734.69
2017-03-11T06:36:31.269Z,734.7
2017-03-11T06:37:31.249Z,734.71
2017-03-11T06:38:31.224Z,734.73
2017-03-11T06:39:31.203Z,734.73
2017-03-11T06:40:31.183Z,734.77
2017-03-11T06:41:31.163Z,734.77
2017-03-11T06:42:31.145Z,734.73
2017-03-11T06:43:31.122Z,734.76
2017-03-11T06:44:31.102Z,734.76
2017-03-11T06:45:31.087Z,734.73
2017-03-11T06:46:31.062Z,734.74
2017-03-11T06:47:31.042Z,734.75
2017-03-11T06:48:31.022Z,734.78
2017-03-11T06:49:31.007Z,734.7
2017-03-11T06:50:30.986Z,734.71
2017-03-11T06:51:30.963Z,734.74
2017-03-11T06:52:30.955Z,734.73
2017-03-11T06:53:30.924Z,734.77
2017-03-11T06:54:30.903Z,734.76
2017-03-11T06:55:30.887Z,734.78
2017-03-11T06:56:30.864Z,734.77
2017-03-11T06:57:30.849Z,734.79
2017-03-11T06:58:30.830Z,734.83
2017-03-11T06:59:30.811Z,734.82
2017-03-11T07:00:30.788Z,734.83
2017-03-11T07:01:30.771Z,734.78
2017-03-11T07:02:30.756Z,734.76
2017-03-11T07:03:30.733Z,734.87
2017-03-11T07:04:30.714Z,734.88
2017-03-11T07:05:30.696Z,734.83
2017-03-11T07:06:30.679Z,734.89
2017-03-11T07:07:30.661Z,734.85
2017-03-11T07:08:30.647Z,734.87
2017-03-11T07:09:30.626Z,734.92
2017-03-11T07:10:30.609Z,734.91
2017-03-11T07:11:30.592Z,734.93
2017-03-11T07:12:30.574Z,734.92
2017-03-11T07:13:30.561Z,734.91
2017-03-11T07:14:30.545Z,734.93
2017-03-11T07:15:30.523Z,735
2017-03-11T07:16:30.507Z,734.91
2017-03-11T07:17:30.491Z,734.99
2017-03-11T07:18:30.474Z,734.97
2017-03-11T07:19:30.459Z,735.03
2017-03-11T07:20:30.446Z,735
2017-03-11T07:21:30.431Z,735.01
2017-03-11T07:22:30.414Z,735.05
2017-03-11T07:23:30.396Z,735.05
2017-03-11T07:24:30.384Z,735.03
2017-03-11T07:25:30.364Z,735.02
2017-03-11T07:26:30.349Z,735.05
2017-03-11T07:27:30.338Z,735.12
2017-03-11T07:28:30.324Z,735.1
2017-03-11T07:29:30.305Z,735.16
2017-03-11T07:30:30.290Z,735.14
2017-03-11T07:31:30.280Z,735.18
2017-03-11T07:32:30.265Z,735.22
2017-03-11T07:33:30.248Z,735.18
2017-03-11T07:34:30.237Z,735.13
2017-03-11T07:35:30.224Z,735.25
2017-03-11T07:36:30.207Z,735.19
2017-03-11T07:37:30.194Z,735.22
2017-03-11T07:38:30.183Z,735.22
2017-03-11T07:39:30.167Z,735.19
2017-03-11T07:40:30.153Z,735.22
2017-03-11T07:41:30.136Z,735.22
2017-03-11T07:42:30.122Z,735.21
2017-03-11T07:43:30.107Z,735.21
2017-03-11T07:44:30.099Z,735.28
2017-03-11T07:45:30.084Z,735.25
2017-03-11T07:46:30.067Z,735.27
2017-03-11T07:47:30.053Z,735.25
2017-03-11T07:48:30.044Z,735.21
2017-03-11T07:49:30.027Z,735.19
2017-03-11T07:50:30.017Z,735.24
2017-03-11T07:51:30.004Z,735.24
2017-03-11T07:52:29.989Z,735.12
2017-03-11T07:53:29.973Z,735.19
2017-03-11T07:54:29.964Z,735.19
2017-03-11T07:55:29.951Z,735.2
2017-03-11T07:56:29.938Z,735.14
2017-03-11T07:57:29.921Z,735.16
2017-03-11T07:58:29.912Z,735.16
2017-03-11T07:59:29.894Z,735.14
2017-03-11T08:00:29.882Z,735.2
2017-03-11T08:01:29.868Z,735.13
2017-03-11T08:02:29.858Z,735.16
2017-03-11T08:03:29.839Z,735.11
2017-03-11T08:04:29.825Z,735.15
2017-03-11T08:05:29.815Z,735.11
2017-03-11T08:06:29.795Z,735.13
2017-03-11T08:07:29.785Z,735.16
2017-03-11T08:08:29.770Z,735.13
2017-03-11T08:09:29.752Z,735.1
2017-03-11T08:10:29.737Z,735.08
2017-03-11T08:11:29.722Z,735.12
2017-03-11T08:12:29.708Z,735.03
2017-03-11T08:13:29.697Z,734.98
2017-03-11T08:14:29.691Z,735.14
2017-03-11T08:15:29.668Z,735.14
2017-03-11T08:16:29.655Z,735
2017-03-11T08:17:29.639Z,735.1
2017-03-11T08:18:29.619Z,735.13
2017-03-11T08:19:29.610Z,735.14
2017-03-11T08:20:29.597Z,735.13
2017-03-11T08:21:29.576Z,735.14
2017-03-11T08:22:29.566Z,735.15
2017-03-11T08:23:29.547Z,735.13
2017-03-11T08:24:29.538Z,735.16
2017-03-11T08:25:29.523Z,735.18
2017-03-11T08:26:29.507Z,735.13
2017-03-11T08:27:29.493Z,735.17
2017-03-11T08:28:29.482Z,735.12
2017-03-11T08:29:29.465Z,735.18
2017-03-11T08:30:29.452Z,735.17
2017-03-11T08:31:29.439Z,735.19
2017-03-11T08:32:29.425Z,735.14
2017-03-11T08:33:29.417Z,735.14
2017-03-11T08:34:29.405Z,735.21
2017-03-11T08:35:29.392Z,735.24
2017-03-11T08:36:29.376Z,735.14
2017-03-11T08:37:29.368Z,735.1
2017-03-11T08:38:29.357Z,735.05
2017-03-11T08:39:29.340Z,735.08
2017-03-11T08:40:29.333Z,735.08
2017-03-11T08:41:29.318Z,735.06
2017-03-11T08:42:29.307Z,735.09
2017-03-11T08:43:29.299Z,735.08
2017-03-11T08:44:29.284Z,735.02
2017-03-11T08:45:29.277Z,735.06
2017-03-11T08:46:29.265Z,735.08
2017-03-11T08:47:29.250Z,735.08
2017-03-11T08:48:29.245Z,735.01
2017-03-11T08:49:29.232Z,734.99
2017-03-11T08:50:29.249Z,734.94
2017-03-11T08:51:29.206Z,734.99
2017-03-11T08:52:29.199Z,734.98
2017-03-11T08:53:29.188Z,734.94
2017-03-11T08:54:29.176Z,734.92
2017-03-11T08:55:29.161Z,734.91
2017-03-11T08:56:29.150Z,734.88
2017-03-11T08:57:29.143Z,734.92
2017-03-11T08:58:29.129Z,734.95
2017-03-11T08:59:29.114Z,734.92
2017-03-11T09:00:29.101Z,734.99
2017-03-11T09:01:29.089Z,734.95
2017-03-11T09:02:29.077Z,734.91
2017-03-11T09:03:29.070Z,734.98
2017-03-11T09:04:29.053Z,734.93
2017-03-11T09:05:29.040Z,734.91
2017-03-11T09:06:29.028Z,734.88
2017-03-11T09:07:29.020Z,734.87
2017-03-11T09:08:29.003Z,734.88
2017-03-11T09:09:28.993Z,734.83
2017-03-11T09:10:28.982Z,734.84
2017-03-11T09:11:28.970Z,734.83
2017-03-11T09:12:28.957Z,734.89
2017-03-11T09:13:28.940Z,734.87
2017-03-11T09:14:28.929Z,734.85
2017-03-11T09:15:28.917Z,734.84
2017-03-11T09:16:28.909Z,734.87
2017-03-11T09:17:28.897Z,734.92
2017-03-11T09:18:28.881Z,734.85
2017-03-11T09:19:28.875Z,734.86
2017-03-11T09:20:28.859Z,734.86
2017-03-11T09:21:28.851Z,734.85
2017-03-11T09:22:28.840Z,734.88
2017-03-11T09:23:28.824Z,734.83
2017-03-11T09:24:28.815Z,734.84
2017-03-11T09:25:28.804Z,734.93
2017-03-11T09:26:28.792Z,734.85
2017-03-11T09:27:28.780Z,734.89
2017-03-11T09:28:28.769Z,734.86
2017-03-11T09:29:28.759Z,734.85
2017-03-11T09:30:28.748Z,734.9
2017-03-11T09:31:28.742Z,734.88
2017-03-11T09:32:28.731Z,734.87
2017-03-11T09:33:28.721Z,734.79
2017-03-11T09:34:28.709Z,734.86
2017-03-11T09:35:28.700Z,734.88
2017-03-11T09:36:28.685Z,734.9
2017-03-11T09:37:28.673Z,734.88
2017-03-11T09:38:28.667Z,734.93
2017-03-11T09:39:28.654Z,734.88
2017-03-11T09:40:28.642Z,734.91
2017-03-11T09:41:28.631Z,734.9
2017-03-11T09:42:28.623Z,734.91
2017-03-11T09:43:28.614Z,734.89
2017-03-11T09:44:28.603Z,734.84
2017-03-11T09:45:28.592Z,734.85
2017-03-11T09:46:28.578Z,734.87
2017-03-11T09:47:28.569Z,734.88
2017-03-11T09:48:28.562Z,734.91
2017-03-11T09:49:28.552Z,734.91
2017-03-11T09:50:28.536Z,734.92
2017-03-11T09:51:28.531Z,734.92
2017-03-11T09:52:28.518Z,734.9
2017-03-11T09:53:28.512Z,734.85
2017-03-11T09:54:28.502Z,734.95
2017-03-11T09:55:28.493Z,734.91
2017-03-11T09:56:28.485Z,734.88
2017-03-11T09:57:28.472Z,734.91
2017-03-11T09:58:28.460Z,734.86
2017-03-11T09:59:28.450Z,734.89
2017-03-11T10:00:28.440Z,734.86
2017-03-11T10:01:28.435Z,734.88
2017-03-11T10:02:28.454Z,734.82
2017-03-11T10:03:28.414Z,734.84
2017-03-11T10:04:28.405Z,734.84
2017-03-11T10:05:28.395Z,734.83
2017-03-11T10:06:28.386Z,734.87
2017-03-11T10:07:28.373Z,734.87
2017-03-11T10:08:28.366Z,734.89
2017-03-11T10:09:28.357Z,734.88
2017-03-11T10:10:28.347Z,734.87
2017-03-11T10:11:28.337Z,734.89
2017-03-11T10:12:28.324Z,734.87
2017-03-11T10:13:28.318Z,734.88
2017-03-11T10:14:28.303Z,734.92
2017-03-11T10:15:28.293Z,734.86
2017-03-11T10:16:28.288Z,734.85
2017-03-11T10:17:28.276Z,734.82
2017-03-11T10:18:28.265Z,734.94
2017-03-11T10:19:28.259Z,734.91
2017-03-11T10:20:28.244Z,734.87
2017-03-11T10:21:28.237Z,734.93
2017-03-11T10:22:28.229Z,734.85
2017-03-11T10:23:28.219Z,734.93
2017-03-11T10:24:28.206Z,734.86
2017-03-11T10:25:28.198Z,734.86
2017-03-11T10:26:28.185Z,734.9
2017-03-11T10:27:28.175Z,734.96
2017-03-11T10:28:28.167Z,734.95
2017-03-11T10:29:28.159Z,734.92
2017-03-11T10:30:28.150Z,734.92
2017-03-11T10:31:28.135Z,734.93
2017-03-11T10:32:28.126Z,734.9
2017-03-11T10:33:28.117Z,734.99
2017-03-11T10:34:28.104Z,734.95
2017-03-11T10:35:28.098Z,735
2017-03-11T10:36:28.086Z,734.97
2017-03-11T10:37:28.073Z,734.99
2017-03-11T10:38:28.064Z,734.98
2017-03-11T10:39:28.052Z,734.96
2017-03-11T10:40:28.040Z,734.99
2017-03-11T10:41:28.034Z,734.94
2017-03-11T10:42:28.021Z,734.96
2017-03-11T10:43:28.012Z,735.02
2017-03-11T10:44:28.005Z,735
2017-03-11T10:45:28.020Z,735.03
2017-03-11T10:46:27.984Z,734.95
2017-03-11T10:47:27.971Z,734.93
2017-03-11T10:48:27.960Z,734.99
2017-03-11T10:49:27.952Z,734.91
2017-03-11T10:50:27.946Z,734.95
2017-03-11T10:51:27.932Z,734.95
2017-03-11T10:52:27.922Z,734.99
2017-03-11T10:53:27.917Z,735.05
2017-03-11T10:54:27.908Z,735.01
2017-03-11T10:55:27.897Z,734.98
2017-03-11T10:56:27.886Z,735.02
2017-03-11T10:57:27.878Z,734.95
2017-03-11T10:58:27.867Z,734.93
2017-03-11T10:59:27.858Z,734.98
2017-03-11T11:00:27.845Z,734.96
2017-03-11T11:01:27.835Z,734.98
2017-03-11T11:02:27.829Z,735.01
2017-03-11T11:03:27.817Z,735.03
2017-03-11T11:04:27.805Z,735.01
2017-03-11T11:05:27.801Z,735.01
2017-03-11T11:06:27.792Z,735.05
2017-03-11T11:07:27.783Z,735.08
2017-03-11T11:08:27.774Z,735.02
2017-03-11T11:09:27.764Z,735.04
2017-03-11T11:10:27.751Z,734.95
2017-03-11T11:11:27.742Z,735
2017-03-11T11:12:27.733Z,734.97
2017-03-11T11:13:27.726Z,734.96
2017-03-11T11:14:27.713Z,734.97
2017-03-11T11:15:27.705Z,734.96
2017-03-11T11:16:27.700Z,734.9
2017-03-11T11:17:27.691Z,734.89
2017-03-11T11:18:27.682Z,734.86
2017-03-11T11:19:27.672Z,734.87
2017-03-11T11:20:27.663Z,734.91
2017-03-11T11:21:27.650Z,734.94
2017-03-11T11:22:27.645Z,734.82
2017-03-11T11:23:27.632Z,734.88
2017-03-11T11:24:27.623Z,734.89
2017-03-11T11:25:27.619Z,734.88
2017-03-11T11:26:27.605Z,734.87
2017-03-11T11:27:27.600Z,734.79
2017-03-11T11:28:27.587Z,734.79
2017-03-11T11:29:27.578Z,734.81
2017-03-11T11:30:27.574Z,734.82
2017-03-11T11:31:27.561Z,734.81
2017-03-11T11:32:27.551Z,734.78
2017-03-11T11:33:27.548Z,734.8
2017-03-11T11:34:27.538Z,734.77
2017-03-11T11:35:27.524Z,734.76
2017-03-11T11:36:27.520Z,734.77
2017-03-11T11:37:27.511Z,734.79
2017-03-11T11:38:27.501Z,734.75
2017-03-11T11:39:27.487Z,734.73
2017-03-11T11:40:27.485Z,734.72
2017-03-11T11:41:27.475Z,734.7
2017-03-11T11:42:27.463Z,734.71
2017-03-11T11:43:27.456Z,734.72
2017-03-11T11:44:27.447Z,734.67
2017-03-11T11:45:27.438Z,734.61
2017-03-11T11:46:27.424Z,734.67
2017-03-11T11:47:27.416Z,734.62
2017-03-11T11:48:27.407Z,734.67
2017-03-11T11:49:27.401Z,734.58
2017-03-11T11:50:27.394Z,734.65
2017-03-11T11:51:27.384Z,734.67
2017-03-11T11:52:27.371Z,734.64
2017-03-11T11:53:27.360Z,734.61
2017-03-11T11:54:27.355Z,734.65
2017-03-11T11:55:27.347Z,734.61
2017-03-11T11:56:27.333Z,734.6
2017-03-11T11:57:27.327Z,734.58
2017-03-11T11:58:27.319Z,734.62
2017-03-11T11:59:27.310Z,734.56
2017-03-11T12:00:27.300Z,734.57
2017-03-11T12:01:27.287Z,734.56
2017-03-11T12:02:27.277Z,734.49
2017-03-11T12:03:27.269Z,734.44
2017-03-11T12:04:27.263Z,734.47
2017-03-11T12:05:27.253Z,734.46
2017-03-11T12:06:27.240Z,734.49
2017-03-11T12:07:27.235Z,734.5
2017-03-11T12:08:27.220Z,734.54
2017-03-11T12:09:27.211Z,734.54
2017-03-11T12:10:27.206Z,734.53
2017-03-11T12:11:27.192Z,734.54
2017-03-11T12:12:27.186Z,734.56
2017-03-11T12:13:27.176Z,734.53
2017-03-11T12:14:27.168Z,734.51
2017-03-11T12:15:27.153Z,734.49
2017-03-11T12:16:27.149Z,734.54
2017-03-11T12:17:27.136Z,734.53
2017-03-11T12:18:27.144Z,734.49
2017-03-11T12:19:27.118Z,734.48
2017-03-11T12:20:27.108Z,734.45
2017-03-11T12:21:27.103Z,734.45
2017-03-11T12:22:27.089Z,734.39
2017-03-11T12:23:27.083Z,734.4
2017-03-11T12:24:27.070Z,734.41
2017-03-11T12:25:27.061Z,734.41
2017-03-11T12:26:27.054Z,734.38
2017-03-11T12:27:27.038Z,734.39
2017-03-11T12:28:27.028Z,734.35
2017-03-11T12:29:27.022Z,734.34
2017-03-11T12:30:27.006Z,734.37
2017-03-11T12:31:26.995Z,734.39